Time;durP1;ratioP1;P1;durP2;ratioP2;P2;SDS_P1;SDS_P2;PMS_P1;PMS_P2;Temp;Humidity;BMP_temperature;BMP_pressure;BME280_temperature;BME280_humidity;BME280_pressure;Samples;Min_cycle;Max_cycle;Signal;HPM_P1;HPM_P2
2022/07/19 00:01:45;;;;;;;4.35;2.60;;;22.80;68.80;;;;;;5082923;28;20032;-81
2022/07/19 00:04:11;;;;;;;23.30;9.65;;;22.70;68.60;;;;;;5080230;28;20093;-81
2022/07/19 00:06:37;;;;;;;9.38;3.55;;;22.60;68.50;;;;;;5079858;28;20030;-81
2022/07/19 00:09:04;;;;;;;4.72;3.00;;;22.70;68.70;;;;;;5080436;28;20583;-81
2022/07/19 00:11:29;;;;;;;7.28;3.20;;;22.60;68.60;;;;;;5095988;28;20028;-81
2022/07/19 00:13:55;;;;;;;6.43;3.28;;;22.60;68.50;;;;;;5081675;28;20025;-78
2022/07/19 00:16:21;;;;;;;5.35;2.80;;;22.60;68.40;;;;;;5082706;28;20036;-79
2022/07/19 00:18:47;;;;;;;5.03;2.75;;;22.50;68.50;;;;;;5087511;28;20027;-80
2022/07/19 00:21:12;;;;;;;5.38;2.80;;;22.50;68.60;;;;;;5093951;28;20039;-80
2022/07/19 00:23:38;;;;;;;5.32;3.05;;;22.50;68.70;;;;;;5093339;28;20040;-80
2022/07/19 00:26:04;;;;;;;9.13;3.30;;;22.50;68.90;;;;;;5100336;28;20047;-81
2022/07/19 00:28:30;;;;;;;5.68;2.55;;;22.40;68.90;;;;;;5094373;28;20032;-81
2022/07/19 00:30:56;;;;;;;5.50;2.95;;;22.40;69.20;;;;;;5097205;28;20028;-81
2022/07/19 00:33:22;;;;;;;3.78;2.60;;;22.30;69.20;;;;;;5087245;28;20035;-81
2022/07/19 00:35:48;;;;;;;5.25;2.80;;;22.30;69.90;;;;;;5083499;28;20328;-78
2022/07/19 00:38:14;;;;;;;6.85;2.75;;;22.20;69.60;;;;;;5083630;28;20060;-81
2022/07/19 00:40:42;;;;;;;5.97;3.10;;;22.20;69.70;;;;;;5080110;28;20062;-80
2022/07/19 00:43:10;;;;;;;5.72;2.85;;;22.20;70.60;;;;;;5078898;28;20024;-81
2022/07/19 00:45:36;;;;;;;4.40;2.75;;;22.20;70.00;;;;;;5081258;28;20050;-80
2022/07/19 00:48:03;;;;;;;5.25;2.83;;;22.10;70.00;;;;;;5081714;28;20040;-80
2022/07/19 00:50:29;;;;;;;6.38;2.83;;;22.10;70.10;;;;;;5081437;28;20253;-81
2022/07/19 00:53:00;;;;;;;6.03;3.10;;;22.10;70.20;;;;;;5077552;28;20052;-80
2022/07/19 00:55:29;;;;;;;4.82;2.83;;;22.00;69.90;;;;;;5079393;28;20059;-80
2022/07/19 00:57:56;;;;;;;5.43;3.03;;;22.00;70.30;;;;;;5089075;28;20035;-80
2022/07/19 01:00:22;;;;;;;4.10;2.60;;;21.90;70.30;;;;;;5089242;28;20051;-80
2022/07/19 01:02:48;;;;;;;5.18;2.90;;;21.90;70.70;;;;;;5079209;28;20063;-79
2022/07/19 01:05:14;;;;;;;6.47;2.80;;;21.80;70.90;;;;;;5079066;28;20034;-80
2022/07/19 01:07:41;;;;;;;4.80;2.85;;;21.80;70.90;;;;;;5080934;28;20035;-81
2022/07/19 01:10:09;;;;;;;6.47;3.05;;;21.80;71.00;;;;;;5080732;28;20020;-80
2022/07/19 01:12:35;;;;;;;6.07;3.20;;;21.80;71.20;;;;;;5079793;28;20032;-80
2022/07/19 01:15:02;;;;;;;4.05;2.70;;;21.70;71.40;;;;;;5077934;28;20033;-80
2022/07/19 01:17:27;;;;;;;7.10;2.80;;;21.60;71.20;;;;;;5083883;28;20046;-81
2022/07/19 01:19:53;;;;;;;6.93;3.13;;;21.70;71.50;;;;;;5081366;28;20036;-80
2022/07/19 01:22:19;;;;;;;6.38;2.55;;;21.60;71.40;;;;;;5088884;28;20293;-81
2022/07/19 01:24:45;;;;;;;6.78;3.13;;;21.60;71.40;;;;;;5081185;28;20753;-81
2022/07/19 01:27:11;;;;;;;5.07;2.50;;;21.60;71.60;;;;;;5080003;28;20062;-81
2022/07/19 01:29:37;;;;;;;8.07;2.60;;;21.50;71.60;;;;;;5082388;28;20046;-81
2022/07/19 01:32:05;;;;;;;4.38;2.65;;;21.50;71.70;;;;;;5092322;28;20033;-81
2022/07/19 01:34:32;;;;;;;10.75;6.80;;;21.50;71.70;;;;;;5094004;28;20020;-81
2022/07/19 01:36:57;;;;;;;6.63;3.30;;;21.40;71.80;;;;;;5102524;28;20021;-81
2022/07/19 01:39:23;;;;;;;6.03;2.92;;;21.40;72.00;;;;;;5125846;27;20047;-80
2022/07/19 01:41:49;;;;;;;8.45;4.38;;;21.40;72.00;;;;;;5110812;27;20034;-81
2022/07/19 01:44:15;;;;;;;6.90;3.00;;;21.30;72.00;;;;;;5113927;28;20016;-80
2022/07/19 01:46:41;;;;;;;19.45;8.43;;;21.30;72.00;;;;;;5103632;28;20114;-82
2022/07/19 01:49:07;;;;;;;6.22;2.78;;;21.30;72.00;;;;;;5120183;27;20089;-80
2022/07/19 01:51:33;;;;;;;5.63;3.00;;;21.40;72.00;;;;;;5099169;28;20077;-81
2022/07/19 01:53:58;;;;;;;7.82;3.65;;;21.20;71.90;;;;;;5103448;28;20025;-80
2022/07/19 01:56:24;;;;;;;4.57;2.60;;;21.20;71.90;;;;;;5111366;28;20099;-81
2022/07/19 01:58:49;;;;;;;5.90;3.13;;;21.20;72.20;;;;;;5099833;28;20033;-80
2022/07/19 02:01:15;;;;;;;5.50;2.78;;;21.10;72.70;;;;;;5086607;28;20731;-80
2022/07/19 02:03:41;;;;;;;7.70;3.92;;;21.20;73.70;;;;;;5085920;28;20024;-81
2022/07/19 02:06:06;;;;;;;7.22;3.53;;;21.10;74.10;;;;;;5081843;28;20128;-80
2022/07/19 02:08:32;;;;;;;6.40;3.70;;;21.10;74.50;;;;;;5081485;28;20028;-80
2022/07/19 02:10:59;;;;;;;9.43;3.80;;;21.10;75.10;;;;;;5080782;28;20090;-78
2022/07/19 02:13:25;;;;;;;7.07;3.83;;;21.00;75.40;;;;;;5084939;28;20073;-79
2022/07/19 02:15:51;;;;;;;8.52;4.00;;;20.90;75.90;;;;;;5087028;28;20039;-79
2022/07/19 02:18:17;;;;;;;7.65;3.67;;;20.80;76.00;;;;;;5094332;28;20107;-79
2022/07/19 02:20:42;;;;;;;5.65;3.50;;;20.80;75.80;;;;;;5090445;28;20047;-80
2022/07/19 02:23:08;;;;;;;7.38;3.90;;;20.80;75.80;;;;;;5088252;28;20059;-78
2022/07/19 02:25:34;;;;;;;6.50;3.85;;;20.80;76.00;;;;;;5082308;28;20028;-79
2022/07/19 02:28:00;;;;;;;6.43;3.50;;;20.80;76.20;;;;;;5083545;28;20044;-80
2022/07/19 02:30:25;;;;;;;7.90;3.63;;;20.70;76.20;;;;;;5081580;28;20454;-80
2022/07/19 02:32:51;;;;;;;7.90;4.05;;;20.70;76.20;;;;;;5082677;28;20039;-80
2022/07/19 02:35:18;;;;;;;9.35;4.18;;;20.70;76.30;;;;;;5082124;28;20027;-83
2022/07/19 02:37:44;;;;;;;6.82;3.83;;;20.70;76.40;;;;;;5082024;28;20055;-80
2022/07/19 02:40:11;;;;;;;8.65;3.95;;;20.70;76.40;;;;;;5080895;28;20457;-81
2022/07/19 02:42:36;;;;;;;8.02;4.00;;;20.70;76.30;;;;;;5078559;28;20024;-80
2022/07/19 02:45:03;;;;;;;6.13;3.70;;;20.70;76.40;;;;;;5084127;28;20028;-80
2022/07/19 02:47:29;;;;;;;6.72;3.50;;;20.70;76.40;;;;;;5083173;28;20120;-80
2022/07/19 02:49:55;;;;;;;8.65;3.83;;;20.70;76.50;;;;;;5084384;28;20470;-81
2022/07/19 02:52:20;;;;;;;7.40;3.55;;;20.70;76.20;;;;;;5082809;28;20031;-80
2022/07/19 02:54:46;;;;;;;6.38;3.38;;;20.70;76.00;;;;;;5081969;28;20032;-80
2022/07/19 02:57:12;;;;;;;5.45;3.40;;;20.70;76.00;;;;;;5081612;28;20021;-81
2022/07/19 02:59:38;;;;;;;5.03;3.17;;;20.70;75.70;;;;;;5101236;28;20047;-81
2022/07/19 03:02:03;;;;;;;6.85;3.15;;;20.70;74.90;;;;;;5109709;28;20099;-80
2022/07/19 03:04:31;;;;;;;5.97;3.30;;;20.60;74.10;;;;;;5090877;28;20055;-79
2022/07/19 03:06:57;;;;;;;7.75;3.55;;;20.60;74.30;;;;;;5086723;28;20044;-80
2022/07/19 03:09:22;;;;;;;5.93;3.30;;;20.60;74.60;;;;;;5080038;28;20090;-80
2022/07/19 03:11:48;;;;;;;6.05;3.40;;;20.60;74.50;;;;;;5081293;28;20028;-80
2022/07/19 03:14:14;;;;;;;7.55;3.20;;;20.60;74.60;;;;;;5081735;28;20385;-80
2022/07/19 03:16:39;;;;;;;4.85;3.08;;;20.50;74.40;;;;;;5072167;28;20043;-80
2022/07/19 03:19:05;;;;;;;5.72;3.13;;;20.10;73.80;;;;;;5075276;28;20024;-80
2022/07/19 03:21:31;;;;;;;5.53;2.97;;;20.50;74.10;;;;;;5079697;28;20028;-80
2022/07/19 03:23:57;;;;;;;5.90;3.25;;;20.50;74.40;;;;;;5076179;28;20042;-80
2022/07/19 03:26:22;;;;;;;7.25;3.15;;;20.40;74.50;;;;;;5077411;28;20032;-80
2022/07/19 03:28:48;;;;;;;5.88;3.08;;;20.40;74.80;;;;;;5075056;28;20032;-80
2022/07/19 03:31:14;;;;;;;7.13;3.22;;;20.40;74.90;;;;;;5078256;28;20028;-79
2022/07/19 03:33:40;;;;;;;6.03;3.53;;;20.40;75.40;;;;;;5077653;28;20108;-78
2022/07/19 03:36:06;;;;;;;4.90;3.30;;;20.40;75.30;;;;;;5080896;28;20023;-79
2022/07/19 03:38:31;;;;;;;7.35;3.58;;;20.30;75.70;;;;;;5077977;28;20024;-80
2022/07/19 03:40:57;;;;;;;6.32;3.78;;;20.30;75.90;;;;;;5078295;28;20044;-81
2022/07/19 03:43:23;;;;;;;5.95;3.42;;;20.30;76.20;;;;;;5074781;28;20036;-80
2022/07/19 03:45:49;;;;;;;6.43;4.10;;;20.30;76.20;;;;;;5074623;28;20035;-77
2022/07/19 03:48:14;;;;;;;5.40;3.67;;;20.30;76.60;;;;;;5077531;28;20034;-80
2022/07/19 03:50:40;;;;;;;7.28;3.95;;;20.20;76.30;;;;;;5073223;28;20020;-80
2022/07/19 03:53:07;;;;;;;6.78;3.80;;;20.30;76.60;;;;;;5075865;28;22055;-77
2022/07/19 03:55:32;;;;;;;5.57;3.55;;;20.30;77.10;;;;;;5076756;28;20145;-78
2022/07/19 03:57:58;;;;;;;7.68;3.83;;;20.30;76.70;;;;;;5077230;28;20158;-78
2022/07/19 04:00:24;;;;;;;7.50;3.60;;;20.30;77.00;;;;;;5069928;28;20043;-77
2022/07/19 04:02:49;;;;;;;6.90;4.00;;;20.20;77.20;;;;;;5102942;28;20497;-78
2022/07/19 04:05:15;;;;;;;8.70;3.80;;;20.20;77.30;;;;;;5081763;28;20046;-79
2022/07/19 04:07:40;;;;;;;7.25;3.78;;;20.10;77.60;;;;;;5079514;28;20657;-79
2022/07/19 04:10:07;;;;;;;8.75;3.83;;;20.10;77.90;;;;;;5079451;28;20028;-78
2022/07/19 04:12:33;;;;;;;7.72;4.20;;;20.10;78.00;;;;;;5078923;28;20047;-78
2022/07/19 04:14:59;;;;;;;6.43;3.83;;;20.00;78.10;;;;;;5077195;28;20417;-79
2022/07/19 04:17:24;;;;;;;7.53;4.40;;;20.10;78.30;;;;;;5080088;28;20036;-78
2022/07/19 04:19:50;;;;;;;9.25;4.20;;;20.00;78.40;;;;;;5058815;28;20540;-76
2022/07/19 04:22:15;;;;;;;7.00;4.40;;;20.10;79.00;;;;;;5081553;28;20047;-78
2022/07/19 04:24:41;;;;;;;7.72;4.05;;;20.00;78.50;;;;;;5074531;28;20040;-78
2022/07/19 04:27:07;;;;;;;8.05;4.00;;;20.00;78.60;;;;;;5074821;28;20032;-77
2022/07/19 04:29:32;;;;;;;7.50;3.78;;;20.00;77.50;;;;;;5072551;28;20490;-78
2022/07/19 04:31:58;;;;;;;10.45;3.45;;;20.00;77.00;;;;;;5075603;28;20032;-78
2022/07/19 04:34:23;;;;;;;8.07;3.63;;;20.00;76.60;;;;;;5079396;28;20077;-76
2022/07/19 04:36:49;;;;;;;4.93;3.15;;;20.10;76.10;;;;;;5078489;28;20028;-79
2022/07/19 04:39:15;;;;;;;8.80;3.40;;;20.00;75.80;;;;;;5074292;28;20028;-77
2022/07/19 04:41:40;;;;;;;7.82;3.00;;;20.00;75.70;;;;;;5080432;28;20120;-78
2022/07/19 04:44:06;;;;;;;7.80;3.78;;;20.10;75.60;;;;;;5085983;28;20054;-78
2022/07/19 04:46:31;;;;;;;5.35;3.13;;;20.10;75.40;;;;;;5084397;28;20116;-78
2022/07/19 04:48:57;;;;;;;5.35;3.33;;;20.10;75.50;;;;;;5087446;28;20024;-82
2022/07/19 04:51:23;;;;;;;8.00;4.00;;;20.10;75.40;;;;;;5083840;28;20028;-79
2022/07/19 04:53:48;;;;;;;6.28;3.30;;;20.10;75.40;;;;;;5082303;28;20028;-78
2022/07/19 04:56:14;;;;;;;7.38;3.28;;;20.10;75.30;;;;;;5081856;28;20020;-78
2022/07/19 04:58:39;;;;;;;8.90;3.05;;;20.20;75.20;;;;;;5079417;28;20055;-78
2022/07/19 05:01:05;;;;;;;5.15;2.80;;;20.20;74.70;;;;;;5090684;28;20025;-78
2022/07/19 05:03:31;;;;;;;11.75;3.38;;;20.30;74.50;;;;;;5087900;28;20039;-78
2022/07/19 05:05:57;;;;;;;7.68;3.40;;;20.40;74.30;;;;;;5176420;22;20082;-84
2022/07/19 05:08:26;;;;;;;8.48;3.22;;;20.40;74.10;;;;;;5070602;28;20113;-84
2022/07/19 05:10:52;;;;;;;10.60;3.80;;;20.50;74.20;;;;;;5047999;28;20120;-85
2022/07/19 05:13:24;;;;;;;11.30;3.38;;;20.50;74.20;;;;;;5063210;28;20021;-83
2022/07/19 05:15:50;;;;;;;7.53;3.45;;;20.70;73.70;;;;;;5063045;28;20029;-84
2022/07/19 05:18:16;;;;;;;7.50;3.28;;;19.80;73.20;;;;;;5060761;28;20105;-82
2022/07/19 05:20:43;;;;;;;7.82;3.15;;;20.70;73.40;;;;;;5073364;28;20024;-80
2022/07/19 05:23:09;;;;;;;6.25;3.30;;;19.40;72.50;;;;;;5064575;28;20021;-82
2022/07/19 05:25:35;;;;;;;6.95;3.60;;;20.90;73.40;;;;;;5066619;28;20037;-81
2022/07/19 05:28:03;;;;;;;11.18;3.58;;;21.20;72.60;;;;;;5036909;28;20083;-83
2022/07/19 05:30:41;;;;;;;6.10;2.60;;;22.40;70.10;;;;;;5079517;28;20047;-81
2022/07/19 05:33:13;;;;;;;9.75;3.30;;;23.90;66.10;;;;;;5072393;28;20051;-83
2022/07/19 05:36:01;;;;;;;5.90;3.20;;;25.30;62.80;;;;;;5054757;28;20082;-82
2022/07/19 05:38:29;;;;;;;8.88;3.53;;;26.30;59.90;;;;;;5044940;28;20036;-79
2022/07/19 05:40:55;;;;;;;7.95;3.00;;;27.40;59.30;;;;;;5043355;28;20040;-80
2022/07/19 05:43:31;;;;;;;7.18;2.95;;;28.50;57.10;;;;;;5028037;28;20472;-80
2022/07/19 05:46:02;;;;;;;10.98;3.20;;;28.50;55.70;;;;;;5043178;28;20027;-79
2022/07/19 05:48:29;;;;;;;4.22;2.53;;;28.90;55.30;;;;;;5046259;28;20101;-81
2022/07/19 05:50:59;;;;;;;4.90;2.70;;;29.10;54.40;;;;;;5035824;28;20041;-80
2022/07/19 05:53:30;;;;;;;6.28;2.60;;;28.80;54.50;;;;;;5050562;28;20028;-82
2022/07/19 05:56:52;;;;;;;7.93;2.70;;;28.30;55.40;;;;;;5060808;28;20064;-79
2022/07/19 05:59:33;;;;;;;6.45;2.70;;;28.50;55.40;;;;;;5061699;28;20533;-82
2022/07/19 06:02:09;;;;;;;8.68;3.15;;;28.70;55.20;;;;;;5045521;28;20025;-80
2022/07/19 06:04:56;;;;;;;9.98;2.80;;;29.20;55.30;;;;;;5051508;28;20021;-81
2022/07/19 06:07:34;;;;;;;6.13;2.70;;;30.30;54.70;;;;;;5050256;28;20373;-80
2022/07/19 06:10:17;;;;;;;6.40;3.10;;;29.10;54.30;;;;;;5044458;28;20050;-82
2022/07/19 06:12:51;;;;;;;6.53;2.60;;;29.10;54.00;;;;;;5064524;28;20032;-84
2022/07/19 06:15:28;;;;;;;9.00;3.50;;;29.50;54.70;;;;;;5062228;28;20054;-83
2022/07/19 06:18:08;;;;;;;7.20;3.53;;;29.50;54.40;;;;;;5046674;28;20040;-80
2022/07/19 06:20:44;;;;;;;8.45;3.65;;;28.90;54.50;;;;;;5048097;28;20458;-80
2022/07/19 06:23:13;;;;;;;10.15;4.40;;;28.60;55.40;;;;;;5045820;28;20032;-81
2022/07/19 06:25:42;;;;;;;9.05;3.28;;;28.20;55.90;;;;;;5046789;28;20036;-80
2022/07/19 06:28:13;;;;;;;8.90;4.00;;;28.10;56.00;;;;;;5063332;28;20526;-81
2022/07/19 06:30:39;;;;;;;8.48;4.13;;;27.80;57.00;;;;;;5069745;28;20030;-85
2022/07/19 06:33:05;;;;;;;7.57;4.35;;;27.40;57.50;;;;;;5056847;28;20021;-79
2022/07/19 06:35:30;;;;;;;7.07;3.80;;;27.60;57.90;;;;;;5068969;28;20082;-79
2022/07/19 06:37:56;;;;;;;10.30;3.85;;;27.30;58.50;;;;;;5071619;28;20037;-79
2022/07/19 06:40:22;;;;;;;8.70;3.80;;;27.10;58.50;;;;;;5060387;28;20109;-82
2022/07/19 06:42:48;;;;;;;10.13;3.03;;;27.00;59.40;;;;;;5073623;28;20032;-84
2022/07/19 06:45:17;;;;;;;7.15;3.15;;;26.60;58.80;;;;;;5052250;28;20038;-82
2022/07/19 06:47:42;;;;;;;9.00;3.30;;;26.50;59.00;;;;;;5064439;28;20120;-80
2022/07/19 06:50:09;;;;;;;10.63;3.35;;;26.50;58.90;;;;;;5048796;28;20064;-82
2022/07/19 06:52:34;;;;;;;5.38;3.00;;;26.50;59.10;;;;;;5057584;28;20071;-80
2022/07/19 06:55:00;;;;;;;8.65;3.03;;;26.50;58.80;;;;;;5052402;28;20020;-82
2022/07/19 06:57:29;;;;;;;4.40;2.45;;;26.50;59.10;;;;;;5068062;28;20040;-86
2022/07/19 06:59:54;;;;;;;8.33;2.90;;;26.40;59.40;;;;;;5051416;28;20024;-81
2022/07/19 07:02:20;;;;;;;7.78;2.97;;;26.30;59.40;;;;;;5053630;28;20275;-83
2022/07/19 07:04:46;;;;;;;4.88;2.63;;;26.30;58.80;;;;;;5070538;28;20032;-82
2022/07/19 07:07:13;;;;;;;7.18;2.95;;;26.30;59.60;;;;;;5053046;28;20058;-84
2022/07/19 07:09:38;;;;;;;6.18;2.70;;;26.40;58.90;;;;;;5054458;28;20051;-83
2022/07/19 07:12:04;;;;;;;7.10;2.90;;;26.50;59.10;;;;;;5072619;28;20023;-84
2022/07/19 07:14:30;;;;;;;6.15;2.70;;;26.50;58.60;;;;;;5049101;28;20035;-84
2022/07/19 07:16:56;;;;;;;3.90;2.50;;;26.60;58.90;;;;;;5053518;28;20033;-85
2022/07/19 07:19:22;;;;;;;6.85;2.72;;;26.70;58.90;;;;;;5053281;28;20118;-83
2022/07/19 07:21:48;;;;;;;6.20;2.55;;;26.80;58.00;;;;;;5057232;28;20486;-85
2022/07/19 07:24:14;;;;;;;6.63;2.60;;;26.90;58.10;;;;;;5058195;28;20210;-84
2022/07/19 07:26:40;;;;;;;4.93;2.55;;;26.90;58.60;;;;;;5047075;28;20476;-82
2022/07/19 07:29:05;;;;;;;6.78;2.40;;;27.00;58.60;;;;;;5072836;28;20096;-84
2022/07/19 07:31:31;;;;;;;5.78;2.60;;;27.10;58.60;;;;;;5052790;28;20112;-84
2022/07/19 07:33:57;;;;;;;7.63;2.38;;;27.20;58.80;;;;;;5051154;28;20021;-86
2022/07/19 07:36:23;;;;;;;7.28;2.60;;;27.30;58.10;;;;;;5056396;28;20048;-84
2022/07/19 07:38:48;;;;;;;25.52;11.95;;;27.20;58.00;;;;;;5050006;28;20111;-85
2022/07/19 07:41:14;;;;;;;3.85;2.20;;;27.30;58.00;;;;;;5058648;28;20032;-83
2022/07/19 07:43:43;;;;;;;9.90;2.95;;;27.30;58.40;;;;;;5055445;28;20088;-83
2022/07/19 07:46:08;;;;;;;6.43;2.70;;;27.30;58.30;;;;;;5070851;28;20402;-82
2022/07/19 07:48:34;;;;;;;5.70;2.80;;;27.50;58.60;;;;;;5070034;28;20021;-85
2022/07/19 07:51:03;;;;;;;6.78;2.20;;;27.60;58.40;;;;;;5055369;28;20020;-83
2022/07/19 07:53:31;;;;;;;7.43;2.58;;;27.70;57.90;;;;;;5059423;28;20017;-86
2022/07/19 07:55:57;;;;;;;4.72;2.40;;;27.70;57.80;;;;;;5070535;28;20029;-88
2022/07/19 07:58:23;;;;;;;6.68;2.55;;;27.80;57.90;;;;;;5040381;28;20032;-84
2022/07/19 08:00:49;;;;;;;10.50;2.88;;;27.90;58.30;;;;;;5068465;28;20036;-85
2022/07/19 08:03:16;;;;;;;5.50;2.50;;;28.00;58.40;;;;;;5056298;28;20051;-83
2022/07/19 08:05:47;;;;;;;7.30;2.53;;;28.20;58.10;;;;;;5050531;28;20096;-84
2022/07/19 08:08:17;;;;;;;5.80;2.67;;;28.30;58.50;;;;;;5058327;28;20054;-83
2022/07/19 08:10:43;;;;;;;7.00;2.67;;;28.40;57.40;;;;;;5070890;28;20531;-81
2022/07/19 08:13:13;;;;;;;4.43;2.50;;;28.60;57.00;;;;;;5073244;28;20024;-83
2022/07/19 08:15:39;;;;;;;6.35;2.45;;;28.60;56.20;;;;;;5068875;28;20040;-83
2022/07/19 08:18:05;;;;;;;7.18;2.85;;;28.70;56.60;;;;;;5054017;28;20085;-84
2022/07/19 08:20:34;;;;;;;7.50;2.78;;;28.80;56.30;;;;;;5054507;28;20028;-80
2022/07/19 08:23:00;;;;;;;4.15;2.22;;;29.00;56.40;;;;;;5051133;28;20029;-83
2022/07/19 08:25:26;;;;;;;8.05;2.78;;;29.10;56.10;;;;;;5043292;28;20028;-85
2022/07/19 08:27:52;;;;;;;8.00;2.65;;;29.20;56.50;;;;;;5062483;28;20541;-86
2022/07/19 08:30:18;;;;;;;6.07;2.90;;;29.30;56.70;;;;;;5061834;28;20025;-82
2022/07/19 08:32:46;;;;;;;5.53;2.10;;;29.40;56.30;;;;;;5057670;28;20185;-81
2022/07/19 08:35:13;;;;;;;6.65;2.78;;;29.40;56.20;;;;;;5063185;28;20048;-84
2022/07/19 08:37:41;;;;;;;4.50;2.50;;;29.60;56.70;;;;;;5045493;28;20110;-84
2022/07/19 08:40:10;;;;;;;7.82;2.40;;;29.70;56.40;;;;;;5044378;28;20031;-83
2022/07/19 08:42:36;;;;;;;11.27;2.95;;;29.90;54.60;;;;;;5063356;28;20556;-84
2022/07/19 08:45:11;;;;;;;2.75;2.08;;;30.00;55.60;;;;;;5070134;28;20273;-81
2022/07/19 08:47:38;;;;;;;6.35;2.00;;;30.20;55.80;;;;;;5045194;28;20468;-80
2022/07/19 08:50:07;;;;;;;4.43;2.28;;;30.30;54.20;;;;;;5045260;28;20051;-80
2022/07/19 08:52:34;;;;;;;4.07;2.50;;;30.50;54.40;;;;;;5046237;28;20024;-86
2022/07/19 08:55:09;;;;;;;4.32;2.30;;;31.60;55.20;;;;;;5046053;28;20405;-80
2022/07/19 09:00:19;;;;;;;6.22;2.17;;;30.80;53.10;;;;;;5063573;28;20055;-82
2022/07/19 09:03:15;;;;;;;4.85;2.10;;;30.90;53.00;;;;;;5055207;28;20540;-83
2022/07/19 09:05:40;;;;;;;4.85;2.45;;;31.20;53.30;;;;;;5025479;28;20063;-80
2022/07/19 09:08:26;;;;;;;7.40;2.20;;;31.20;52.60;;;;;;5048774;28;20037;-82
2022/07/19 09:11:27;;;;;;;4.80;2.28;;;31.30;52.20;;;;;;5056126;28;20066;-82
2022/07/19 09:14:48;;;;;;;5.93;2.30;;;31.40;52.20;;;;;;5047900;28;20448;-86
2022/07/19 09:17:19;;;;;;;3.67;1.92;;;31.50;52.40;;;;;;5054325;28;20040;-84
2022/07/19 09:19:49;;;;;;;4.78;2.20;;;31.70;52.00;;;;;;5043947;28;20028;-83
2022/07/19 09:22:26;;;;;;;5.78;2.20;;;31.70;52.00;;;;;;5041745;28;20040;-83
2022/07/19 09:24:54;;;;;;;4.55;2.50;;;31.90;51.20;;;;;;5037782;28;20029;-83
2022/07/19 09:27:25;;;;;;;4.82;1.73;;;32.00;50.70;;;;;;5040267;28;20690;-83
2022/07/19 09:33:17;;;;;;;2.60;1.83;;;32.20;50.60;;;;;;4938826;28;20027;-84
2022/07/19 09:35:51;;;;;;;3.75;1.88;;;32.40;49.60;;;;;;4974701;28;20031;-82
2022/07/19 09:38:27;;;;;;;5.22;2.15;;;32.60;48.70;;;;;;5020538;28;20098;-83
2022/07/19 09:41:16;;;;;;;7.53;2.10;;;32.80;48.50;;;;;;5043371;28;20067;-86
2022/07/19 09:43:59;;;;;;;9.43;2.00;;;33.00;47.70;;;;;;5079320;28;20033;-83
2022/07/19 09:46:45;;;;;;;4.72;1.85;;;33.10;47.60;;;;;;5061382;28;20036;-82
2022/07/19 09:49:16;;;;;;;5.30;2.10;;;33.20;47.70;;;;;;5074676;28;20028;-85
2022/07/19 09:51:52;;;;;;;4.90;2.00;;;33.20;47.70;;;;;;5072145;28;20036;-82
2022/07/19 09:54:24;;;;;;;4.50;2.15;;;33.30;47.80;;;;;;5072001;28;20034;-81
2022/07/19 09:56:51;;;;;;;3.10;1.92;;;33.30;46.70;;;;;;5055452;28;20119;-83
2022/07/19 09:59:18;;;;;;;10.65;2.00;;;33.60;46.70;;;;;;5062488;28;20035;-83
2022/07/19 10:01:45;;;;;;;7.13;2.28;;;33.70;46.70;;;;;;5054142;28;20121;-83
2022/07/19 10:04:32;;;;;;;3.92;1.95;;;33.90;46.30;;;;;;5054648;28;20032;-82
2022/07/19 10:06:58;;;;;;;3.33;1.75;;;34.00;46.30;;;;;;5047687;28;20032;-81
2022/07/19 10:09:24;;;;;;;5.63;1.92;;;34.00;46.50;;;;;;5056044;28;20133;-85
2022/07/19 10:11:51;;;;;;;3.28;1.80;;;34.10;46.70;;;;;;5073172;28;20489;-84
2022/07/19 10:14:17;;;;;;;6.80;2.00;;;34.00;46.30;;;;;;5073745;28;20025;-84
2022/07/19 10:17:00;;;;;;;5.20;2.20;;;33.80;46.60;;;;;;5069777;28;20033;-82
2022/07/19 10:19:37;;;;;;;4.03;2.00;;;34.10;47.40;;;;;;5042752;28;20481;-82
2022/07/19 10:22:04;;;;;;;4.53;1.92;;;34.20;45.50;;;;;;5061313;28;20047;-80
2022/07/19 10:24:47;;;;;;;9.07;2.03;;;33.10;44.60;;;;;;5061445;28;20036;-81
2022/07/19 10:27:51;;;;;;;6.80;1.95;;;34.30;44.10;;;;;;5049738;28;20025;-82
2022/07/19 10:30:20;;;;;;;5.65;2.00;;;34.20;43.50;;;;;;5048695;28;20027;-80
2022/07/19 10:32:48;;;;;;;5.07;1.60;;;34.20;44.20;;;;;;5036886;28;20052;-82
2022/07/19 10:35:18;;;;;;;7.00;2.08;;;34.30;44.20;;;;;;5052645;28;20025;-81
2022/07/19 10:37:46;;;;;;;4.93;1.95;;;34.20;43.50;;;;;;5051306;28;20035;-83
2022/07/19 10:40:12;;;;;;;3.80;1.70;;;34.30;43.60;;;;;;5053855;28;20033;-82
2022/07/19 10:43:10;;;;;;;4.72;1.85;;;34.40;43.90;;;;;;5051458;28;20029;-82
2022/07/19 10:45:38;;;;;;;5.07;1.92;;;34.40;43.10;;;;;;5067945;28;20028;-82
2022/07/19 10:48:13;;;;;;;5.18;2.00;;;34.50;43.30;;;;;;5053460;28;20045;-82
2022/07/19 10:50:45;;;;;;;5.90;2.05;;;34.70;43.10;;;;;;5072458;28;20024;-81
2022/07/19 10:53:31;;;;;;;4.25;2.03;;;34.70;43.70;;;;;;5059965;28;20027;-81
2022/07/19 10:56:19;;;;;;;5.20;2.00;;;34.80;43.40;;;;;;5053271;28;20028;-81
2022/07/19 10:58:48;;;;;;;5.22;2.05;;;34.90;43.20;;;;;;5049337;28;20036;-82
2022/07/19 11:01:19;;;;;;;5.28;2.15;;;35.10;43.20;;;;;;5052232;28;20048;-83
2022/07/19 11:03:49;;;;;;;4.10;1.73;;;35.20;42.80;;;;;;5057345;28;20029;-82
2022/07/19 11:06:24;;;;;;;3.75;2.00;;;35.30;43.30;;;;;;5056469;28;20758;-82
2022/07/19 11:08:54;;;;;;;3.17;1.85;;;35.00;43.00;;;;;;5061045;28;20028;-83
2022/07/19 11:11:20;;;;;;;4.90;2.00;;;35.00;43.00;;;;;;5076680;28;20027;-82
2022/07/19 11:13:51;;;;;;;6.60;2.10;;;35.00;42.40;;;;;;5074761;28;20084;-83
2022/07/19 11:16:17;;;;;;;6.07;2.17;;;35.10;42.70;;;;;;5060237;28;20018;-81
2022/07/19 11:18:44;;;;;;;3.78;2.10;;;35.20;42.90;;;;;;5058787;28;20020;-83
2022/07/19 11:21:14;;;;;;;5.38;2.25;;;35.40;42.50;;;;;;5058738;28;20025;-82
2022/07/19 11:23:44;;;;;;;5.35;2.00;;;35.40;42.60;;;;;;5074820;28;20021;-82
2022/07/19 11:26:23;;;;;;;5.18;2.05;;;35.50;42.40;;;;;;5075457;28;20021;-83
2022/07/19 11:28:52;;;;;;;6.97;2.10;;;35.70;42.20;;;;;;5054797;28;20121;-81
2022/07/19 11:31:23;;;;;;;4.90;2.05;;;35.70;42.10;;;;;;5056222;28;20108;-83
2022/07/19 11:33:58;;;;;;;5.38;2.30;;;35.70;42.30;;;;;;5063389;28;20041;-81
2022/07/19 11:36:26;;;;;;;6.40;2.28;;;35.80;41.80;;;;;;5060022;28;20025;-84
2022/07/19 11:39:00;;;;;;;5.72;2.08;;;35.70;41.80;;;;;;5066399;28;20060;-81
2022/07/19 11:41:41;;;;;;;3.60;2.35;;;35.70;42.10;;;;;;5073446;28;20451;-81
2022/07/19 11:47:51;;;;;;;6.50;2.13;;;36.70;42.40;;;;;;5019075;28;21034;-82
2022/07/19 11:50:38;;;;;;;;;;;;;;;;;;;;;
2022/07/19 11:53:25;;;;;;;3.33;2.10;;;35.90;41.80;;;;;;5055864;28;20084;-83
2022/07/19 11:56:00;;;;;;;3.60;1.98;;;37.20;42.20;;;;;;5001488;28;20038;-82
2022/07/19 11:58:37;;;;;;;7.05;1.90;;;36.20;41.60;;;;;;5029379;28;20030;-79
2022/07/19 12:01:13;;;;;;;6.13;1.90;;;35.20;40.80;;;;;;5013005;28;20116;-82
2022/07/19 12:03:53;;;;;;;4.20;2.10;;;36.20;41.00;;;;;;5007191;28;20143;-81
2022/07/19 12:06:49;;;;;;;8.75;2.20;;;36.10;41.30;;;;;;5021764;28;20487;-83
2022/07/19 12:09:33;;;;;;;5.82;2.40;;;36.10;41.10;;;;;;5030802;28;20078;-82
2022/07/19 12:12:10;;;;;;;5.75;2.20;;;36.10;40.70;;;;;;4998493;28;20033;-82
2022/07/19 12:14:37;;;;;;;5.82;1.90;;;36.20;40.70;;;;;;5029633;28;20068;-83
2022/07/19 12:17:21;;;;;;;4.18;1.80;;;36.20;40.50;;;;;;5025816;28;20030;-80
2022/07/19 12:20:06;;;;;;;6.18;2.03;;;36.20;40.00;;;;;;5022075;28;20036;-82
2022/07/19 12:22:39;;;;;;;4.53;1.88;;;35.90;39.90;;;;;;5025677;28;20025;-82
2022/07/19 12:25:07;;;;;;;5.80;2.20;;;35.90;40.10;;;;;;5031858;28;20022;-82
2022/07/19 12:27:34;;;;;;;4.35;1.95;;;36.10;39.80;;;;;;5013918;28;20408;-82
2022/07/19 12:30:03;;;;;;;3.95;1.90;;;36.20;39.50;;;;;;5033337;28;20089;-81
2022/07/19 12:32:35;;;;;;;5.13;2.13;;;36.20;39.10;;;;;;5021831;28;20088;-81
2022/07/19 12:35:05;;;;;;;7.10;2.13;;;36.20;39.70;;;;;;5014231;28;20033;-83
2022/07/19 12:37:43;;;;;;;5.95;2.70;;;36.30;39.90;;;;;;5009413;28;20033;-83
2022/07/19 12:40:20;;;;;;;4.83;2.20;;;36.90;40.50;;;;;;5004157;28;20104;-82
2022/07/19 12:43:04;;;;;;;5.93;2.40;;;36.50;39.40;;;;;;5021300;28;20022;-81
2022/07/19 12:45:39;;;;;;;5.57;2.13;;;36.40;40.20;;;;;;5007776;28;20052;-82
2022/07/19 12:48:10;;;;;;;9.27;2.10;;;36.60;39.80;;;;;;5016249;28;20075;-84
2022/07/19 12:50:43;;;;;;;4.50;1.92;;;36.60;40.50;;;;;;5030305;28;20026;-82
2022/07/19 12:53:12;;;;;;;5.68;2.50;;;36.00;40.40;;;;;;5017571;28;20048;-82
2022/07/19 12:55:38;;;;;;;;;;;36.40;39.00;;;;;;5022058;28;20029;-84
2022/07/19 12:58:06;;;;;;;8.27;2.22;;;36.40;39.50;;;;;;5024821;28;20387;-83
2022/07/19 13:00:33;;;;;;;4.72;2.20;;;36.50;39.20;;;;;;5009387;28;20032;-82
2022/07/19 13:02:59;;;;;;;9.90;2.88;;;36.50;39.30;;;;;;5008128;28;20034;-81
2022/07/19 13:05:26;;;;;;;5.15;2.28;;;36.60;39.30;;;;;;5033461;28;20033;-81
2022/07/19 13:07:55;;;;;;;4.68;2.33;;;36.70;39.40;;;;;;5033331;28;20038;-82
2022/07/19 13:10:21;;;;;;;4.35;2.20;;;36.90;39.00;;;;;;5016633;28;20406;-81